sensor_id;sensor_type;location;lat;lon;timestamp;P1;durP1;ratioP1;P2;durP2;ratioP2
56401;SDS011;42299;35.160;26.100;2023-06-04T00:09:23;13.48;;;8.48;;
56401;SDS011;42299;35.160;26.100;2023-06-04T00:19:47;13.07;;;8.75;;
56401;SDS011;42299;35.160;26.100;2023-06-04T00:30:09;13.85;;;8.95;;
56401;SDS011;42299;35.160;26.100;2023-06-04T00:40:34;11.30;;;8.57;;
56401;SDS011;42299;35.160;26.100;2023-06-04T00:50:57;11.98;;;7.82;;
56401;SDS011;42299;35.160;26.100;2023-06-04T01:01:23;13.32;;;7.57;;
56401;SDS011;42299;35.160;26.100;2023-06-04T01:11:51;13.65;;;8.68;;
56401;SDS011;42299;35.160;26.100;2023-06-04T01:22:17;14.35;;;8.60;;
56401;SDS011;42299;35.160;26.100;2023-06-04T01:32:52;14.05;;;9.32;;
56401;SDS011;42299;35.160;26.100;2023-06-04T01:43:17;16.23;;;9.18;;
56401;SDS011;42299;35.160;26.100;2023-06-04T01:53:40;12.68;;;8.93;;
56401;SDS011;42299;35.160;26.100;2023-06-04T02:04:04;9.88;;;8.13;;
56401;SDS011;42299;35.160;26.100;2023-06-04T02:14:27;10.20;;;7.88;;
56401;SDS011;42299;35.160;26.100;2023-06-04T02:24:51;11.57;;;7.97;;
56401;SDS011;42299;35.160;26.100;2023-06-04T02:35:14;12.95;;;8.63;;
56401;SDS011;42299;35.160;26.100;2023-06-04T02:45:38;12.93;;;8.25;;
56401;SDS011;42299;35.160;26.100;2023-06-04T02:56:01;13.00;;;8.65;;
56401;SDS011;42299;35.160;26.100;2023-06-04T03:06:25;12.30;;;7.03;;
56401;SDS011;42299;35.160;26.100;2023-06-04T03:16:48;12.40;;;7.68;;
56401;SDS011;42299;35.160;26.100;2023-06-04T03:27:13;10.13;;;6.30;;
56401;SDS011;42299;35.160;26.100;2023-06-04T03:37:36;9.10;;;5.57;;
56401;SDS011;42299;35.160;26.100;2023-06-04T03:48:01;10.45;;;5.25;;
56401;SDS011;42299;35.160;26.100;2023-06-04T03:58:24;10.60;;;4.78;;
56401;SDS011;42299;35.160;26.100;2023-06-04T04:08:51;6.93;;;4.13;;
56401;SDS011;42299;35.160;26.100;2023-06-04T04:19:15;7.78;;;4.75;;
56401;SDS011;42299;35.160;26.100;2023-06-04T04:29:40;8.13;;;3.97;;
56401;SDS011;42299;35.160;26.100;2023-06-04T04:40:06;6.65;;;3.78;;
56401;SDS011;42299;35.160;26.100;2023-06-04T04:50:35;8.27;;;3.80;;
56401;SDS011;42299;35.160;26.100;2023-06-04T05:00:59;8.05;;;4.20;;
56401;SDS011;42299;35.160;26.100;2023-06-04T05:11:24;7.85;;;3.50;;
56401;SDS011;42299;35.160;26.100;2023-06-04T05:21:46;10.10;;;6.05;;
56401;SDS011;42299;35.160;26.100;2023-06-04T05:32:11;10.68;;;4.40;;
56401;SDS011;42299;35.160;26.100;2023-06-04T05:42:33;9.50;;;4.43;;
56401;SDS011;42299;35.160;26.100;2023-06-04T05:52:59;8.55;;;4.53;;
56401;SDS011;42299;35.160;26.100;2023-06-04T06:03:22;10.07;;;4.22;;
56401;SDS011;42299;35.160;26.100;2023-06-04T06:13:47;7.38;;;3.78;;
56401;SDS011;42299;35.160;26.100;2023-06-04T06:24:10;9.57;;;3.35;;
56401;SDS011;42299;35.160;26.100;2023-06-04T06:34:34;6.97;;;3.30;;
56401;SDS011;42299;35.160;26.100;2023-06-04T06:44:57;10.57;;;4.10;;
56401;SDS011;42299;35.160;26.100;2023-06-04T06:55:22;10.48;;;4.20;;
56401;SDS011;42299;35.160;26.100;2023-06-04T07:05:45;9.85;;;3.70;;
56401;SDS011;42299;35.160;26.100;2023-06-04T07:16:10;8.82;;;3.40;;
56401;SDS011;42299;35.160;26.100;2023-06-04T07:26:34;6.80;;;3.40;;
56401;SDS011;42299;35.160;26.100;2023-06-04T07:36:58;6.90;;;3.40;;
56401;SDS011;42299;35.160;26.100;2023-06-04T07:47:22;5.63;;;2.95;;
56401;SDS011;42299;35.160;26.100;2023-06-04T07:57:46;5.70;;;3.35;;
56401;SDS011;42299;35.160;26.100;2023-06-04T08:08:09;8.05;;;3.40;;
56401;SDS011;42299;35.160;26.100;2023-06-04T08:18:33;11.15;;;4.20;;
56401;SDS011;42299;35.160;26.100;2023-06-04T08:29:02;6.45;;;3.42;;
56401;SDS011;42299;35.160;26.100;2023-06-04T08:39:27;7.27;;;3.63;;
56401;SDS011;42299;35.160;26.100;2023-06-04T08:49:50;7.68;;;3.55;;
56401;SDS011;42299;35.160;26.100;2023-06-04T09:00:16;7.63;;;3.58;;
56401;SDS011;42299;35.160;26.100;2023-06-04T09:10:39;6.07;;;3.37;;
56401;SDS011;42299;35.160;26.100;2023-06-04T09:21:05;3.92;;;2.55;;
56401;SDS011;42299;35.160;26.100;2023-06-04T09:31:29;3.75;;;2.40;;
56401;SDS011;42299;35.160;26.100;2023-06-04T09:42:00;6.63;;;2.70;;
56401;SDS011;42299;35.160;26.100;2023-06-04T09:52:32;8.13;;;2.75;;
56401;SDS011;42299;35.160;26.100;2023-06-04T10:03:01;7.43;;;2.42;;
56401;SDS011;42299;35.160;26.100;2023-06-04T10:13:24;4.43;;;2.33;;
56401;SDS011;42299;35.160;26.100;2023-06-04T10:23:51;4.77;;;2.40;;
56401;SDS011;42299;35.160;26.100;2023-06-04T10:34:14;7.70;;;2.45;;
56401;SDS011;42299;35.160;26.100;2023-06-04T10:44:45;7.53;;;3.08;;
56401;SDS011;42299;35.160;26.100;2023-06-04T10:55:09;5.80;;;2.85;;
56401;SDS011;42299;35.160;26.100;2023-06-04T11:05:37;4.47;;;2.38;;
56401;SDS011;42299;35.160;26.100;2023-06-04T11:16:00;5.90;;;2.80;;
56401;SDS011;42299;35.160;26.100;2023-06-04T11:26:30;7.72;;;3.20;;
56401;SDS011;42299;35.160;26.100;2023-06-04T11:36:56;7.93;;;4.13;;
56401;SDS011;42299;35.160;26.100;2023-06-04T11:47:31;7.25;;;2.95;;
56401;SDS011;42299;35.160;26.100;2023-06-04T11:57:54;6.68;;;3.17;;
56401;SDS011;42299;35.160;26.100;2023-06-04T12:08:18;8.80;;;3.75;;
56401;SDS011;42299;35.160;26.100;2023-06-04T12:18:41;6.70;;;3.90;;
56401;SDS011;42299;35.160;26.100;2023-06-04T12:29:09;8.40;;;3.70;;
56401;SDS011;42299;35.160;26.100;2023-06-04T12:39:32;9.50;;;4.65;;
56401;SDS011;42299;35.160;26.100;2023-06-04T12:49:57;9.40;;;4.28;;
56401;SDS011;42299;35.160;26.100;2023-06-04T13:00:21;8.60;;;4.03;;
56401;SDS011;42299;35.160;26.100;2023-06-04T13:10:46;7.40;;;3.92;;
56401;SDS011;42299;35.160;26.100;2023-06-04T13:21:10;9.07;;;4.13;;
56401;SDS011;42299;35.160;26.100;2023-06-04T13:31:34;9.63;;;4.43;;
56401;SDS011;42299;35.160;26.100;2023-06-04T13:41:58;12.45;;;4.38;;
56401;SDS011;42299;35.160;26.100;2023-06-04T13:52:22;9.55;;;4.57;;
56401;SDS011;42299;35.160;26.100;2023-06-04T14:02:45;7.72;;;3.80;;
56401;SDS011;42299;35.160;26.100;2023-06-04T14:13:09;8.93;;;3.88;;
56401;SDS011;42299;35.160;26.100;2023-06-04T14:23:32;9.73;;;4.13;;
56401;SDS011;42299;35.160;26.100;2023-06-04T14:33:57;7.93;;;3.40;;
56401;SDS011;42299;35.160;26.100;2023-06-04T14:44:19;5.72;;;3.22;;
56401;SDS011;42299;35.160;26.100;2023-06-04T14:54:44;8.68;;;3.70;;
56401;SDS011;42299;35.160;26.100;2023-06-04T15:05:07;6.47;;;3.20;;
56401;SDS011;42299;35.160;26.100;2023-06-04T15:15:31;6.32;;;3.25;;
56401;SDS011;42299;35.160;26.100;2023-06-04T15:25:54;10.63;;;3.45;;
56401;SDS011;42299;35.160;26.100;2023-06-04T15:36:18;10.43;;;5.30;;
56401;SDS011;42299;35.160;26.100;2023-06-04T15:46:41;8.68;;;4.18;;
56401;SDS011;42299;35.160;26.100;2023-06-04T15:57:05;12.63;;;7.15;;
56401;SDS011;42299;35.160;26.100;2023-06-04T16:07:28;7.70;;;3.90;;
56401;SDS011;42299;35.160;26.100;2023-06-04T16:17:52;9.55;;;3.92;;
56401;SDS011;42299;35.160;26.100;2023-06-04T16:28:16;7.22;;;3.95;;
56401;SDS011;42299;35.160;26.100;2023-06-04T16:38:40;7.13;;;3.45;;
56401;SDS011;42299;35.160;26.100;2023-06-04T16:49:03;9.68;;;3.58;;
56401;SDS011;42299;35.160;26.100;2023-06-04T16:59:28;6.78;;;3.38;;
56401;SDS011;42299;35.160;26.100;2023-06-04T17:09:51;7.20;;;3.35;;
56401;SDS011;42299;35.160;26.100;2023-06-04T17:20:15;8.57;;;4.03;;
56401;SDS011;42299;35.160;26.100;2023-06-04T17:30:38;9.00;;;4.50;;
56401;SDS011;42299;35.160;26.100;2023-06-04T17:41:02;5.38;;;3.50;;
56401;SDS011;42299;35.160;26.100;2023-06-04T17:51:26;8.48;;;4.78;;
56401;SDS011;42299;35.160;26.100;2023-06-04T18:01:51;10.40;;;5.53;;
56401;SDS011;42299;35.160;26.100;2023-06-04T18:12:14;10.32;;;4.85;;
56401;SDS011;42299;35.160;26.100;2023-06-04T18:22:39;10.98;;;5.10;;
56401;SDS011;42299;35.160;26.100;2023-06-04T18:33:01;9.02;;;4.65;;
56401;SDS011;42299;35.160;26.100;2023-06-04T18:43:25;10.40;;;5.88;;
56401;SDS011;42299;35.160;26.100;2023-06-04T18:53:47;10.60;;;5.18;;
56401;SDS011;42299;35.160;26.100;2023-06-04T19:04:12;10.30;;;5.40;;
56401;SDS011;42299;35.160;26.100;2023-06-04T19:14:34;8.30;;;5.28;;
56401;SDS011;42299;35.160;26.100;2023-06-04T19:24:59;8.45;;;4.43;;
56401;SDS011;42299;35.160;26.100;2023-06-04T19:35:22;8.95;;;5.70;;
56401;SDS011;42299;35.160;26.100;2023-06-04T19:45:46;15.27;;;7.22;;
56401;SDS011;42299;35.160;26.100;2023-06-04T19:56:09;9.88;;;5.60;;
56401;SDS011;42299;35.160;26.100;2023-06-04T20:06:33;7.68;;;4.85;;
56401;SDS011;42299;35.160;26.100;2023-06-04T20:16:56;8.00;;;4.80;;
56401;SDS011;42299;35.160;26.100;2023-06-04T20:27:21;8.88;;;5.30;;
56401;SDS011;42299;35.160;26.100;2023-06-04T20:37:44;9.45;;;5.70;;
56401;SDS011;42299;35.160;26.100;2023-06-04T20:48:08;8.73;;;5.07;;
56401;SDS011;42299;35.160;26.100;2023-06-04T20:58:31;9.85;;;6.07;;
56401;SDS011;42299;35.160;26.100;2023-06-04T21:08:55;8.13;;;5.70;;
56401;SDS011;42299;35.160;26.100;2023-06-04T21:19:18;8.07;;;5.57;;
56401;SDS011;42299;35.160;26.100;2023-06-04T21:29:42;10.35;;;5.13;;
56401;SDS011;42299;35.160;26.100;2023-06-04T21:40:06;7.90;;;5.28;;
56401;SDS011;42299;35.160;26.100;2023-06-04T21:50:30;7.40;;;5.07;;
56401;SDS011;42299;35.160;26.100;2023-06-04T22:00:53;9.27;;;5.28;;
56401;SDS011;42299;35.160;26.100;2023-06-04T22:11:17;10.00;;;5.03;;
56401;SDS011;42299;35.160;26.100;2023-06-04T22:21:39;6.32;;;4.68;;
56401;SDS011;42299;35.160;26.100;2023-06-04T22:32:04;8.45;;;4.60;;
56401;SDS011;42299;35.160;26.100;2023-06-04T22:42:28;11.30;;;5.60;;
56401;SDS011;42299;35.160;26.100;2023-06-04T22:52:52;9.32;;;4.20;;
56401;SDS011;42299;35.160;26.100;2023-06-04T23:03:14;8.85;;;4.80;;
56401;SDS011;42299;35.160;26.100;2023-06-04T23:13:38;8.32;;;5.03;;
56401;SDS011;42299;35.160;26.100;2023-06-04T23:24:01;7.13;;;4.50;;
56401;SDS011;42299;35.160;26.100;2023-06-04T23:34:26;8.02;;;4.43;;
56401;SDS011;42299;35.160;26.100;2023-06-04T23:44:49;11.90;;;4.65;;
56401;SDS011;42299;35.160;26.100;2023-06-04T23:55:14;10.27;;;5.57;;
